Time;durP1;ratioP1;P1;durP2;ratioP2;P2;SDS_P1;SDS_P2;PMS_P1;PMS_P2;Temp;Humidity;BMP_temperature;BMP_pressure;BME280_temperature;BME280_humidity;BME280_pressure;Samples;Min_cycle;Max_cycle;Signal;HPM_P1;HPM_P2
2023/06/16 00:01:06;;;;;;;12.45;6.88;;;16.20;99.90;;;;;;5067610;28;20052;-76
2023/06/16 00:03:35;;;;;;;12.00;6.95;;;16.20;99.90;;;;;;5073384;28;20058;-76
2023/06/16 00:06:14;;;;;;;13.20;6.97;;;16.20;99.90;;;;;;5060400;28;20081;-76
2023/06/16 00:08:44;;;;;;;12.15;6.80;;;16.20;99.90;;;;;;5076366;28;20048;-76
2023/06/16 00:11:17;;;;;;;12.95;7.18;;;16.10;99.90;;;;;;5080493;28;20454;-76
2023/06/16 00:13:45;;;;;;;14.40;7.70;;;16.10;99.90;;;;;;5073753;28;20051;-76
2023/06/16 00:16:13;;;;;;;12.27;7.00;;;16.10;99.90;;;;;;5076274;28;20178;-76
2023/06/16 00:18:43;;;;;;;12.20;7.82;;;16.10;99.90;;;;;;5079566;28;20040;-76
2023/06/16 00:21:10;;;;;;;13.00;7.45;;;16.10;99.90;;;;;;5077400;28;20100;-76
2023/06/16 00:23:36;;;;;;;12.85;7.35;;;16.10;99.90;;;;;;5076230;28;20036;-76
2023/06/16 00:26:02;;;;;;;13.50;7.35;;;16.10;99.90;;;;;;5075962;28;20276;-76
2023/06/16 00:28:27;;;;;;;13.38;7.57;;;16.10;99.90;;;;;;5058636;28;20269;-76
2023/06/16 00:30:53;;;;;;;12.25;7.95;;;16.10;99.90;;;;;;5073164;28;20064;-76
2023/06/16 00:33:19;;;;;;;15.20;7.95;;;16.10;99.90;;;;;;5074083;28;20220;-76
2023/06/16 00:35:45;;;;;;;14.20;7.63;;;16.00;99.90;;;;;;5069855;28;20202;-76
2023/06/16 00:38:11;;;;;;;14.73;7.45;;;16.00;99.90;;;;;;5054819;28;20104;-76
2023/06/16 00:40:37;;;;;;;13.93;7.13;;;16.00;99.90;;;;;;5074992;28;20216;-76
2023/06/16 00:43:03;;;;;;;14.63;7.72;;;16.10;99.90;;;;;;5077707;28;20035;-76
2023/06/16 00:45:30;;;;;;;12.32;7.43;;;16.00;99.90;;;;;;5073627;28;20033;-76
2023/06/16 00:48:00;;;;;;;12.30;7.07;;;16.00;99.90;;;;;;5073300;28;20186;-76
2023/06/16 00:50:26;;;;;;;11.70;7.15;;;16.00;99.90;;;;;;5075004;28;20037;-76
2023/06/16 00:52:52;;;;;;;13.13;7.78;;;16.00;99.90;;;;;;5078514;28;20117;-76
2023/06/16 00:55:21;;;;;;;13.18;7.60;;;16.00;99.90;;;;;;5074610;28;20044;-76
2023/06/16 00:57:50;;;;;;;13.27;7.78;;;16.10;99.90;;;;;;5073263;28;20032;-76
2023/06/16 01:00:17;;;;;;;12.80;8.05;;;16.10;99.90;;;;;;5051626;28;20261;-76
2023/06/16 01:02:46;;;;;;;12.88;8.20;;;16.00;99.90;;;;;;5070006;28;20060;-76
2023/06/16 01:05:20;;;;;;;14.75;8.40;;;16.00;99.90;;;;;;5071686;28;20049;-77
2023/06/16 01:08:33;;;;;;;13.80;8.20;;;15.90;99.90;;;;;;5075503;28;20247;-77
2023/06/16 01:11:02;;;;;;;12.65;7.68;;;16.00;99.90;;;;;;5076504;28;20041;-76
2023/06/16 01:13:53;;;;;;;13.18;8.63;;;16.00;99.90;;;;;;5073314;28;20039;-76
2023/06/16 01:16:25;;;;;;;12.50;8.40;;;16.00;99.90;;;;;;5074149;28;20032;-76
2023/06/16 01:18:53;;;;;;;12.73;8.65;;;16.00;99.90;;;;;;5074941;28;20037;-76
2023/06/16 01:21:32;;;;;;;13.15;8.13;;;16.00;99.90;;;;;;5076334;28;20044;-76
2023/06/16 01:24:08;;;;;;;14.15;8.45;;;16.00;99.90;;;;;;5075961;28;20047;-76
2023/06/16 01:26:37;;;;;;;12.80;8.13;;;16.00;99.90;;;;;;5077901;28;20217;-76
2023/06/16 01:29:11;;;;;;;13.75;8.48;;;16.00;99.90;;;;;;5054116;28;20095;-76
2023/06/16 01:31:38;;;;;;;14.60;8.55;;;15.90;99.90;;;;;;5072403;28;20050;-76
2023/06/16 01:34:07;;;;;;;13.50;9.00;;;15.90;99.90;;;;;;5070186;28;20052;-76
2023/06/16 01:36:36;;;;;;;13.45;8.93;;;15.90;99.90;;;;;;5075532;28;20048;-76
2023/06/16 01:39:03;;;;;;;15.52;8.70;;;15.80;99.90;;;;;;5071264;28;20044;-76
2023/06/16 01:41:29;;;;;;;13.88;9.00;;;15.80;99.90;;;;;;5058036;28;20048;-76
2023/06/16 01:43:56;;;;;;;12.55;8.35;;;15.70;99.90;;;;;;5055042;28;20045;-76
2023/06/16 01:46:23;;;;;;;14.48;8.75;;;15.70;99.90;;;;;;5071545;28;20053;-76
2023/06/16 01:48:49;;;;;;;13.48;9.25;;;15.70;99.90;;;;;;5072867;28;20074;-76
2023/06/16 01:51:15;;;;;;;12.55;8.98;;;15.70;99.90;;;;;;5076162;28;20204;-76
2023/06/16 01:53:41;;;;;;;16.13;9.48;;;15.60;99.90;;;;;;5072765;28;20049;-76
2023/06/16 01:56:11;;;;;;;13.80;9.75;;;15.60;99.90;;;;;;5071098;28;20324;-76
2023/06/16 01:58:38;;;;;;;15.77;9.73;;;15.60;99.90;;;;;;5069301;28;20185;-76
2023/06/16 02:01:23;;;;;;;13.90;9.55;;;15.60;99.90;;;;;;5057989;28;20108;-76
2023/06/16 02:03:55;;;;;;;13.15;9.25;;;15.50;99.90;;;;;;5072844;28;20212;-76
2023/06/16 02:06:26;;;;;;;14.63;10.15;;;15.50;99.90;;;;;;5078940;28;20449;-76
2023/06/16 02:08:55;;;;;;;13.90;10.07;;;15.50;99.90;;;;;;5069037;28;20052;-76
2023/06/16 02:11:21;;;;;;;15.23;10.13;;;15.50;99.90;;;;;;5073966;28;20057;-77
2023/06/16 02:13:48;;;;;;;14.75;10.43;;;15.40;99.90;;;;;;5073936;28;20148;-77
2023/06/16 02:16:14;;;;;;;15.00;10.25;;;15.40;99.90;;;;;;5059175;28;20051;-76
2023/06/16 02:18:40;;;;;;;14.07;9.52;;;15.40;99.90;;;;;;5074419;28;20048;-76
2023/06/16 02:21:06;;;;;;;17.00;10.00;;;15.40;99.90;;;;;;5073205;28;20082;-76
2023/06/16 02:23:32;;;;;;;14.40;10.40;;;15.30;99.90;;;;;;5072083;28;20044;-76
2023/06/16 02:25:57;;;;;;;14.35;10.50;;;15.30;99.90;;;;;;5075617;28;20041;-76
2023/06/16 02:28:23;;;;;;;13.95;10.05;;;15.30;99.90;;;;;;5068325;28;20235;-76
2023/06/16 02:30:49;;;;;;;16.10;10.65;;;15.30;99.90;;;;;;5072353;28;20067;-77
2023/06/16 02:33:17;;;;;;;14.00;10.40;;;15.30;99.90;;;;;;5069540;28;20052;-77
2023/06/16 02:35:43;;;;;;;15.13;10.85;;;15.30;99.90;;;;;;5073207;28;20040;-76
2023/06/16 02:38:09;;;;;;;14.30;10.48;;;15.30;99.90;;;;;;5073520;28;20048;-76
2023/06/16 02:40:35;;;;;;;17.00;9.90;;;15.20;99.90;;;;;;5071300;28;20048;-77
2023/06/16 02:43:01;;;;;;;17.90;10.90;;;15.20;99.90;;;;;;5070698;28;20043;-77
2023/06/16 02:45:26;;;;;;;16.15;11.10;;;15.20;99.90;;;;;;5070581;28;20091;-77
2023/06/16 02:47:52;;;;;;;16.40;11.05;;;15.10;99.90;;;;;;5073097;28;20041;-77
2023/06/16 02:50:19;;;;;;;15.95;11.40;;;15.20;99.90;;;;;;5073070;28;20273;-77
2023/06/16 02:52:45;;;;;;;14.82;10.73;;;15.20;99.90;;;;;;5070724;28;20076;-77
2023/06/16 02:55:12;;;;;;;17.17;11.38;;;15.20;99.90;;;;;;5072173;28;20300;-77
2023/06/16 02:57:38;;;;;;;14.85;11.38;;;15.10;99.90;;;;;;5074335;28;20043;-77
2023/06/16 03:00:09;;;;;;;15.43;10.88;;;15.10;99.90;;;;;;5070936;28;20037;-77
2023/06/16 03:02:35;;;;;;;15.55;11.13;;;15.10;99.90;;;;;;5070389;28;20048;-77
2023/06/16 03:05:04;;;;;;;15.45;11.70;;;15.10;99.90;;;;;;5072958;28;20052;-77
2023/06/16 03:07:34;;;;;;;15.10;11.32;;;15.10;99.90;;;;;;5071626;28;20320;-77
2023/06/16 03:10:01;;;;;;;16.63;11.70;;;14.70;99.90;;;;;;5059033;28;20171;-77
2023/06/16 03:12:27;;;;;;;17.50;11.73;;;15.10;99.90;;;;;;5070041;28;20052;-77
2023/06/16 03:14:53;;;;;;;19.23;12.50;;;15.10;99.90;;;;;;5068768;28;20056;-77
2023/06/16 03:17:21;;;;;;;17.63;12.00;;;15.10;99.90;;;;;;5046491;28;20096;-77
2023/06/16 03:19:48;;;;;;;16.60;12.48;;;15.10;99.90;;;;;;5072500;28;20062;-77
2023/06/16 03:22:13;;;;;;;15.82;12.63;;;15.10;99.90;;;;;;5070131;28;20043;-77
2023/06/16 03:24:41;;;;;;;17.50;13.13;;;15.10;99.90;;;;;;5073653;28;20048;-77
2023/06/16 03:27:08;;;;;;;17.45;13.10;;;15.10;99.90;;;;;;5051139;28;20078;-77
2023/06/16 03:29:34;;;;;;;17.55;13.40;;;15.20;99.90;;;;;;5071711;28;20040;-77
2023/06/16 03:32:00;;;;;;;18.70;14.15;;;15.20;99.90;;;;;;5069969;28;20054;-77
2023/06/16 03:34:29;;;;;;;18.23;14.07;;;15.20;99.90;;;;;;5073046;28;20043;-77
2023/06/16 03:36:55;;;;;;;19.05;15.15;;;15.20;99.90;;;;;;5072373;28;20126;-77
2023/06/16 03:39:21;;;;;;;20.85;14.75;;;15.20;99.90;;;;;;5050349;28;20100;-77
2023/06/16 03:41:47;;;;;;;20.67;16.13;;;15.30;99.90;;;;;;5072323;28;20043;-77
2023/06/16 03:44:13;;;;;;;20.00;15.75;;;15.20;99.90;;;;;;5052965;28;20282;-77
2023/06/16 03:46:38;;;;;;;19.35;15.63;;;15.20;99.90;;;;;;5077656;28;20044;-77
2023/06/16 03:49:04;;;;;;;20.92;15.38;;;15.20;99.90;;;;;;5075494;28;20040;-77
2023/06/16 03:51:30;;;;;;;22.50;15.55;;;15.30;99.90;;;;;;5064981;28;20041;-77
2023/06/16 03:53:57;;;;;;;18.35;15.02;;;15.30;99.90;;;;;;5069418;28;20060;-77
2023/06/16 03:56:23;;;;;;;19.75;14.13;;;15.30;99.90;;;;;;5075730;28;20048;-77
2023/06/16 03:58:49;;;;;;;19.52;14.75;;;15.30;99.90;;;;;;5072806;28;20083;-77
2023/06/16 04:01:16;;;;;;;20.17;15.15;;;15.30;99.90;;;;;;5048558;28;20028;-77
2023/06/16 04:03:41;;;;;;;19.20;14.82;;;15.30;99.90;;;;;;5071055;28;20325;-77
2023/06/16 04:06:07;;;;;;;18.77;14.48;;;15.40;99.90;;;;;;5073878;28;20048;-77
2023/06/16 04:08:33;;;;;;;18.90;15.43;;;15.40;99.90;;;;;;5073912;28;20036;-77
2023/06/16 04:10:59;;;;;;;22.38;14.77;;;15.50;99.90;;;;;;5071374;28;20060;-77
2023/06/16 04:13:25;;;;;;;20.00;14.45;;;15.50;99.90;;;;;;5077321;28;20067;-77
2023/06/16 04:15:51;;;;;;;20.48;15.18;;;15.60;99.90;;;;;;5072377;28;20187;-77
2023/06/16 04:18:16;;;;;;;19.88;15.40;;;15.60;99.90;;;;;;5075548;28;20040;-77
2023/06/16 04:20:42;;;;;;;18.13;13.50;;;15.70;99.90;;;;;;5070050;28;20262;-77
2023/06/16 04:23:09;;;;;;;19.42;14.73;;;15.70;99.90;;;;;;5053464;28;20041;-77
2023/06/16 04:25:37;;;;;;;18.30;14.43;;;15.80;99.90;;;;;;5075890;28;20045;-77
2023/06/16 04:28:03;;;;;;;18.67;14.52;;;15.90;99.90;;;;;;5070730;28;20055;-77
2023/06/16 04:30:30;;;;;;;21.52;14.77;;;16.00;99.90;;;;;;5069609;28;20041;-77
2023/06/16 04:32:59;;;;;;;20.58;15.23;;;16.00;99.90;;;;;;5074029;28;20308;-77
2023/06/16 04:35:31;;;;;;;20.15;15.10;;;16.00;99.90;;;;;;5075623;28;20354;-77
2023/06/16 04:37:58;;;;;;;20.25;15.45;;;16.10;99.90;;;;;;5075165;28;20114;-77
2023/06/16 04:40:25;;;;;;;20.65;15.85;;;16.10;99.90;;;;;;5071018;28;20041;-77
2023/06/16 04:42:51;;;;;;;18.58;15.05;;;16.20;99.90;;;;;;5074273;28;20051;-77
2023/06/16 04:45:17;;;;;;;20.08;15.38;;;16.30;99.90;;;;;;5070245;28;20314;-77
2023/06/16 04:47:44;;;;;;;21.67;15.70;;;16.30;99.90;;;;;;5068810;28;20049;-77
2023/06/16 04:50:10;;;;;;;19.27;15.25;;;16.40;99.90;;;;;;5072236;28;20045;-77
2023/06/16 04:52:37;;;;;;;19.92;15.63;;;16.40;99.90;;;;;;5075107;28;20045;-78
2023/06/16 04:55:04;;;;;;;21.48;15.50;;;16.40;99.90;;;;;;5070929;28;20305;-78
2023/06/16 04:57:31;;;;;;;19.90;15.75;;;16.40;99.90;;;;;;5071200;28;20063;-77
2023/06/16 04:59:58;;;;;;;20.02;15.95;;;16.50;99.90;;;;;;5066156;28;20095;-77
2023/06/16 05:02:24;;;;;;;21.33;15.80;;;16.60;99.90;;;;;;5071809;28;20025;-76
2023/06/16 05:04:50;;;;;;;20.35;16.60;;;16.60;99.90;;;;;;5072266;28;20229;-76
2023/06/16 05:07:16;;;;;;;20.48;16.23;;;16.70;99.90;;;;;;5075728;28;20078;-77
2023/06/16 05:09:42;;;;;;;19.85;15.32;;;16.80;99.90;;;;;;5076714;28;20036;-77
2023/06/16 05:12:08;;;;;;;19.70;15.23;;;16.90;99.90;;;;;;5069443;28;20040;-76
2023/06/16 05:14:34;;;;;;;20.50;16.40;;;17.00;99.90;;;;;;5074347;28;20037;-76
2023/06/16 05:17:00;;;;;;;19.42;15.95;;;17.10;99.90;;;;;;5079178;28;20302;-76
2023/06/16 05:19:26;;;;;;;22.88;16.98;;;17.10;99.90;;;;;;5078624;28;20064;-77
2023/06/16 05:21:52;;;;;;;22.52;16.35;;;17.20;99.90;;;;;;5077839;28;20112;-77
2023/06/16 05:24:18;;;;;;;19.95;15.35;;;17.30;99.90;;;;;;5070940;28;20220;-76
2023/06/16 05:26:44;;;;;;;22.88;14.90;;;17.40;99.90;;;;;;5072065;28;20044;-76
2023/06/16 05:29:09;;;;;;;19.13;14.73;;;17.40;99.90;;;;;;5074683;28;20197;-77
2023/06/16 05:31:35;;;;;;;21.08;15.23;;;17.50;99.90;;;;;;5078605;28;20178;-77
2023/06/16 05:34:01;;;;;;;19.63;14.77;;;17.50;99.90;;;;;;5068571;28;20283;-77
2023/06/16 05:36:29;;;;;;;17.48;14.45;;;17.60;99.90;;;;;;5040092;28;20039;-76
2023/06/16 05:38:55;;;;;;;20.27;13.52;;;17.60;99.90;;;;;;5074032;28;20064;-76
2023/06/16 05:41:24;;;;;;;16.75;12.98;;;17.70;99.90;;;;;;5075238;28;20098;-77
2023/06/16 05:43:57;;;;;;;18.48;12.80;;;17.90;99.90;;;;;;5061803;28;20040;-77
2023/06/16 05:46:23;;;;;;;19.75;12.60;;;17.90;99.90;;;;;;5076584;28;20056;-77
2023/06/16 05:48:48;;;;;;;17.58;12.13;;;18.00;99.90;;;;;;5074942;28;20229;-77
2023/06/16 05:51:15;;;;;;;19.90;13.68;;;18.10;99.90;;;;;;5076328;28;20032;-77
2023/06/16 05:53:40;;;;;;;19.75;14.57;;;18.10;99.90;;;;;;5077644;28;20068;-77
2023/06/16 05:56:06;;;;;;;18.58;12.60;;;18.20;99.90;;;;;;5074363;28;20063;-77
2023/06/16 05:58:35;;;;;;;16.08;12.10;;;18.20;99.90;;;;;;5055035;28;20124;-77
2023/06/16 06:01:02;;;;;;;17.10;12.60;;;18.30;99.90;;;;;;5074447;28;20043;-77
2023/06/16 06:03:28;;;;;;;15.00;11.20;;;18.40;99.90;;;;;;5058600;28;20099;-77
2023/06/16 06:05:55;;;;;;;17.17;11.50;;;18.50;99.90;;;;;;5077248;28;20044;-76
2023/06/16 06:08:24;;;;;;;16.63;11.43;;;18.50;99.90;;;;;;5075235;28;20126;-76
2023/06/16 06:10:51;;;;;;;15.18;11.30;;;18.60;99.90;;;;;;5074806;28;20052;-76
2023/06/16 06:13:17;;;;;;;17.25;11.02;;;18.60;99.90;;;;;;5073420;28;20036;-76
2023/06/16 06:15:42;;;;;;;16.05;10.65;;;18.70;99.90;;;;;;5065811;28;20059;-76
2023/06/16 06:18:08;;;;;;;15.63;10.80;;;18.70;99.90;;;;;;5072730;28;20280;-77
2023/06/16 06:20:34;;;;;;;14.77;10.23;;;18.80;99.90;;;;;;5070076;28;20052;-76
2023/06/16 06:23:00;;;;;;;15.75;11.40;;;18.90;99.90;;;;;;5067413;28;20053;-76
2023/06/16 06:25:25;;;;;;;14.85;10.77;;;18.90;99.90;;;;;;5073074;28;20063;-77
2023/06/16 06:27:51;;;;;;;15.23;10.85;;;19.10;99.90;;;;;;5077845;28;20048;-77
2023/06/16 06:30:17;;;;;;;17.40;11.18;;;19.20;99.90;;;;;;5067920;28;20056;-77
2023/06/16 06:32:42;;;;;;;16.33;11.63;;;19.20;99.90;;;;;;5073520;28;20068;-76
2023/06/16 06:35:08;;;;;;;17.52;11.07;;;19.30;99.90;;;;;;5070866;28;20032;-77
2023/06/16 06:37:34;;;;;;;14.90;10.00;;;19.40;99.90;;;;;;5076486;28;20275;-75
2023/06/16 06:40:00;;;;;;;15.98;10.27;;;19.50;99.90;;;;;;5071335;28;20091;-75
2023/06/16 06:42:27;;;;;;;16.77;11.38;;;19.60;99.90;;;;;;5077466;28;20094;-75
2023/06/16 06:44:53;;;;;;;15.85;10.38;;;19.60;99.90;;;;;;5075613;28;21009;-77
2023/06/16 06:47:21;;;;;;;16.55;10.60;;;19.70;99.90;;;;;;5070269;28;20028;-75
2023/06/16 06:49:49;;;;;;;16.23;10.98;;;19.70;99.90;;;;;;5071615;28;20147;-76
2023/06/16 06:52:15;;;;;;;14.82;9.55;;;19.80;99.90;;;;;;5075238;28;20032;-76
2023/06/16 06:54:40;;;;;;;15.43;9.75;;;19.90;99.90;;;;;;5073036;28;20053;-76
2023/06/16 06:57:06;;;;;;;17.27;10.75;;;20.00;99.90;;;;;;5074806;28;20044;-76
2023/06/16 06:59:32;;;;;;;19.08;12.45;;;20.10;99.90;;;;;;5072968;28;20040;-76
2023/06/16 07:01:58;;;;;;;16.30;10.30;;;20.10;99.90;;;;;;5074721;28;21211;-76
2023/06/16 07:04:24;;;;;;;14.40;9.25;;;20.10;99.90;;;;;;5075098;28;20029;-75
2023/06/16 07:06:50;;;;;;;11.65;7.28;;;20.30;99.90;;;;;;5055492;28;20091;-75
2023/06/16 07:09:15;;;;;;;11.50;6.45;;;20.30;99.90;;;;;;5070104;28;20043;-76
2023/06/16 07:11:41;;;;;;;11.15;6.35;;;20.30;99.90;;;;;;5071971;28;20407;-76
2023/06/16 07:14:08;;;;;;;9.95;6.03;;;20.40;99.90;;;;;;5076249;28;20163;-76
2023/06/16 07:16:34;;;;;;;12.00;6.78;;;20.60;99.90;;;;;;5074027;28;20036;-76
2023/06/16 07:19:01;;;;;;;12.73;6.30;;;20.70;99.90;;;;;;5074358;28;20297;-76
2023/06/16 07:21:27;;;;;;;10.77;6.15;;;20.80;99.90;;;;;;5049942;28;20039;-76
2023/06/16 07:23:53;;;;;;;11.93;6.50;;;20.90;99.90;;;;;;5071040;28;20052;-76
2023/06/16 07:26:19;;;;;;;12.43;6.60;;;21.00;99.90;;;;;;5056682;28;20048;-76
2023/06/16 07:28:45;;;;;;;10.77;5.93;;;21.10;99.90;;;;;;5072404;28;20359;-76
2023/06/16 07:31:10;;;;;;;10.38;5.90;;;21.10;99.90;;;;;;5069973;28;20242;-76
2023/06/16 07:33:36;;;;;;;11.32;6.68;;;21.10;99.90;;;;;;5071258;28;20414;-76
2023/06/16 07:36:02;;;;;;;11.32;6.00;;;21.10;99.90;;;;;;5073366;28;20354;-76
2023/06/16 07:38:28;;;;;;;11.50;6.18;;;21.20;99.90;;;;;;5070353;28;20044;-76
2023/06/16 07:40:54;;;;;;;10.73;6.10;;;21.20;99.90;;;;;;5070169;28;20036;-76
2023/06/16 07:43:21;;;;;;;10.35;6.07;;;21.20;99.90;;;;;;5060265;28;20088;-76
2023/06/16 07:45:47;;;;;;;10.45;5.78;;;21.20;99.90;;;;;;5073581;28;20097;-76
2023/06/16 07:48:13;;;;;;;9.85;5.70;;;21.20;99.90;;;;;;5075316;28;20186;-76
2023/06/16 07:50:40;;;;;;;10.93;5.22;;;21.20;99.90;;;;;;5074965;28;20032;-76
2023/06/16 07:53:06;;;;;;;11.07;5.68;;;21.20;99.90;;;;;;5074660;28;20143;-76
2023/06/16 07:55:32;;;;;;;9.45;5.20;;;21.30;99.90;;;;;;5070008;28;20041;-76
2023/06/16 07:57:58;;;;;;;9.30;4.97;;;21.30;99.90;;;;;;5074401;28;20029;-76
2023/06/16 08:00:24;;;;;;;9.07;5.05;;;21.30;99.90;;;;;;5072924;28;20147;-76
2023/06/16 08:02:50;;;;;;;10.13;5.10;;;21.40;99.90;;;;;;5057141;28;20088;-76
2023/06/16 08:05:16;;;;;;;10.75;5.30;;;21.50;99.90;;;;;;5072502;28;20278;-76
2023/06/16 08:07:43;;;;;;;10.52;5.13;;;21.50;99.90;;;;;;5069497;28;20039;-76
2023/06/16 08:10:10;;;;;;;11.15;4.97;;;21.50;99.90;;;;;;5070259;28;20048;-76
2023/06/16 08:12:35;;;;;;;9.50;4.50;;;21.60;99.90;;;;;;5073787;28;20048;-76
2023/06/16 08:15:03;;;;;;;8.43;4.03;;;21.60;99.90;;;;;;5074935;28;20044;-76
2023/06/16 08:17:29;;;;;;;9.65;4.10;;;21.70;99.90;;;;;;5049294;28;20078;-76
2023/06/16 08:19:55;;;;;;;9.45;4.25;;;21.80;99.90;;;;;;5057650;28;20055;-76
2023/06/16 08:22:21;;;;;;;11.57;4.50;;;21.80;99.90;;;;;;5050135;28;20134;-76
2023/06/16 08:24:46;;;;;;;8.48;3.58;;;21.90;99.90;;;;;;5072129;28;20052;-76
2023/06/16 08:27:12;;;;;;;9.18;3.30;;;21.90;99.90;;;;;;5076824;28;20336;-76
2023/06/16 08:29:39;;;;;;;9.85;3.33;;;21.90;99.90;;;;;;5072795;28;20123;-76
2023/06/16 08:32:06;;;;;;;8.60;3.30;;;21.90;99.90;;;;;;5074557;28;20055;-76
2023/06/16 08:34:33;;;;;;;7.68;2.95;;;22.00;99.90;;;;;;5074023;28;20070;-74
2023/06/16 08:37:01;;;;;;;8.40;3.15;;;21.90;99.90;;;;;;5076788;28;20040;-74
2023/06/16 08:39:27;;;;;;;7.78;2.75;;;;;;;;;;5074949;28;20324;-74
2023/06/16 08:41:53;;;;;;;10.23;2.95;;;;;;;;;;5076509;28;20333;-74
2023/06/16 08:44:21;;;;;;;7.90;2.83;;;22.10;99.90;;;;;;5077477;28;20036;-74
2023/06/16 08:46:48;;;;;;;7.78;2.70;;;22.10;99.90;;;;;;5077636;28;20211;-74
2023/06/16 08:49:15;;;;;;;7.15;2.58;;;22.00;99.90;;;;;;5076582;28;20045;-74
2023/06/16 08:51:48;;;;;;;7.00;2.50;;;22.00;99.90;;;;;;5075788;28;20044;-74
2023/06/16 08:54:14;;;;;;;9.57;2.70;;;22.10;99.90;;;;;;5076172;28;20169;-74
2023/06/16 08:56:42;;;;;;;7.88;2.38;;;22.20;99.90;;;;;;5078342;28;20056;-75
2023/06/16 08:59:10;;;;;;;11.15;2.53;;;22.30;99.90;;;;;;5075066;28;20048;-74
2023/06/16 09:01:39;;;;;;;7.45;2.40;;;22.50;99.90;;;;;;5076576;28;20052;-77
2023/06/16 09:04:09;;;;;;;8.27;3.13;;;22.40;99.90;;;;;;5055867;28;20349;-77
2023/06/16 09:06:43;;;;;;;10.10;2.70;;;22.40;99.90;;;;;;5072072;28;20036;-77
2023/06/16 09:09:09;;;;;;;7.55;2.78;;;22.40;99.90;;;;;;5074949;28;20234;-76
2023/06/16 09:11:35;;;;;;;7.55;2.80;;;22.50;99.90;;;;;;5075753;28;20033;-76
2023/06/16 09:14:10;;;;;;;6.93;2.58;;;22.60;99.90;;;;;;5058174;28;20068;-76
2023/06/16 09:16:39;;;;;;;8.20;2.80;;;22.60;99.90;;;;;;5077104;28;20029;-76
2023/06/16 09:19:08;;;;;;;8.07;2.90;;;22.50;99.90;;;;;;5075358;28;20230;-76
2023/06/16 09:21:35;;;;;;;7.13;2.67;;;22.50;99.90;;;;;;5070382;28;20064;-76
2023/06/16 09:24:02;;;;;;;6.38;2.45;;;21.80;99.90;;;;;;5059151;28;20120;-76
2023/06/16 09:26:35;;;;;;;7.78;2.65;;;22.70;99.90;;;;;;5074919;28;20227;-76
2023/06/16 09:29:19;;;;;;;7.30;2.78;;;22.80;99.90;;;;;;5071622;28;20061;-77
2023/06/16 09:31:46;;;;;;;7.75;2.80;;;;;;;;;;5074850;28;20036;-77
2023/06/16 09:34:12;;;;;;;7.32;2.53;;;23.00;99.90;;;;;;5077237;28;20091;-76
2023/06/16 09:36:38;;;;;;;7.28;2.70;;;23.00;99.90;;;;;;5055084;28;20041;-76
2023/06/16 09:39:07;;;;;;;7.70;2.80;;;23.10;99.90;;;;;;5074757;28;20229;-76
2023/06/16 09:41:36;;;;;;;9.18;2.85;;;23.00;99.90;;;;;;5075651;28;20048;-76
2023/06/16 09:44:02;;;;;;;8.90;2.67;;;23.10;99.90;;;;;;5078804;28;20073;-76
2023/06/16 09:46:29;;;;;;;6.97;2.60;;;23.00;99.90;;;;;;5075546;28;20044;-76
2023/06/16 09:48:54;;;;;;;7.07;2.50;;;23.00;99.90;;;;;;5075144;28;20107;-76
2023/06/16 09:51:25;;;;;;;9.93;2.60;;;23.10;99.90;;;;;;5077621;28;20031;-76
2023/06/16 09:53:51;;;;;;;6.28;2.30;;;23.10;99.90;;;;;;5056120;28;20044;-76
2023/06/16 09:56:18;;;;;;;8.05;2.67;;;;;;;;;;5052360;28;20056;-76
2023/06/16 09:58:45;;;;;;;8.82;3.00;;;23.10;99.90;;;;;;5056964;28;20107;-76
2023/06/16 10:01:13;;;;;;;10.30;3.22;;;23.10;99.90;;;;;;5074283;28;20025;-76
2023/06/16 10:03:41;;;;;;;7.40;2.95;;;23.20;99.90;;;;;;5072852;28;20040;-76
2023/06/16 10:06:28;;;;;;;6.72;2.58;;;23.30;99.90;;;;;;5076504;28;20092;-76
2023/06/16 10:08:55;;;;;;;8.85;2.65;;;23.30;99.90;;;;;;5075383;28;20150;-76
2023/06/16 10:11:21;;;;;;;9.73;3.33;;;23.30;99.90;;;;;;5076597;28;20063;-76
2023/06/16 10:13:58;;;;;;;8.73;2.75;;;23.20;99.90;;;;;;5073829;28;20049;-76
2023/06/16 10:16:28;;;;;;;9.50;2.50;;;23.30;99.90;;;;;;5078392;28;20313;-76
2023/06/16 10:18:57;;;;;;;9.55;3.25;;;23.30;99.90;;;;;;5072191;28;20060;-76
2023/06/16 10:21:26;;;;;;;6.82;2.22;;;23.30;99.90;;;;;;5059088;28;20040;-76
2023/06/16 10:23:52;;;;;;;9.55;2.72;;;23.40;99.90;;;;;;5071198;28;20075;-76
2023/06/16 10:26:18;;;;;;;7.63;2.60;;;23.30;99.90;;;;;;5071944;28;20209;-76
2023/06/16 10:28:46;;;;;;;7.82;2.53;;;23.30;99.90;;;;;;5069044;28;20305;-76
2023/06/16 10:31:12;;;;;;;7.13;2.70;;;23.40;99.90;;;;;;5075698;28;20278;-76
2023/06/16 10:33:57;;;;;;;7.50;2.38;;;23.60;99.90;;;;;;5078077;28;20044;-76
2023/06/16 10:36:33;;;;;;;8.88;2.50;;;23.70;99.90;;;;;;5080756;28;20055;-76
2023/06/16 10:39:13;;;;;;;8.30;2.70;;;23.70;99.90;;;;;;5053888;28;20104;-76
2023/06/16 10:41:57;;;;;;;8.82;2.85;;;23.70;99.90;;;;;;5073963;28;20096;-76
2023/06/16 10:44:32;;;;;;;9.20;2.60;;;23.80;99.90;;;;;;5072226;28;20040;-76
2023/06/16 10:47:10;;;;;;;6.82;2.45;;;23.80;99.90;;;;;;5073510;28;20052;-77
2023/06/16 10:49:55;;;;;;;6.57;2.53;;;23.80;99.90;;;;;;5075068;28;20047;-77
2023/06/16 10:52:50;;;;;;;8.18;2.30;;;23.80;99.90;;;;;;5056563;28;20125;-76
2023/06/16 10:55:34;;;;;;;6.45;2.50;;;23.90;99.90;;;;;;5074379;28;20044;-76
2023/06/16 10:58:15;;;;;;;7.60;2.42;;;24.40;99.90;;;;;;5066434;28;20247;-77
2023/06/16 11:00:55;;;;;;;7.43;2.33;;;24.00;99.90;;;;;;5071430;28;20329;-77
2023/06/16 11:03:21;;;;;;;7.13;2.40;;;24.00;99.90;;;;;;5072085;28;20105;-77
2023/06/16 11:05:48;;;;;;;7.70;2.70;;;23.90;99.90;;;;;;5074531;28;20086;-77
2023/06/16 11:08:17;;;;;;;7.50;2.35;;;23.80;99.80;;;;;;5068191;28;20059;-76
2023/06/16 11:11:04;;;;;;;8.95;2.20;;;23.90;99.40;;;;;;5074457;28;20051;-77
2023/06/16 11:13:32;;;;;;;8.05;2.53;;;23.80;99.80;;;;;;5076984;28;20040;-77
2023/06/16 11:15:59;;;;;;;6.75;2.55;;;23.80;99.90;;;;;;5072052;28;20118;-77
2023/06/16 11:18:27;;;;;;;6.82;2.53;;;23.90;99.80;;;;;;5073080;28;20361;-77
2023/06/16 11:20:57;;;;;;;7.85;2.50;;;23.90;99.30;;;;;;5072740;28;20083;-78
2023/06/16 11:23:23;;;;;;;7.85;2.92;;;24.00;99.00;;;;;;5076562;28;20048;-77
2023/06/16 11:25:50;;;;;;;9.30;2.88;;;24.00;98.80;;;;;;5072279;28;20051;-76
2023/06/16 11:28:22;;;;;;;6.78;2.63;;;24.10;98.80;;;;;;5055309;28;20040;-76
2023/06/16 11:30:48;;;;;;;7.15;2.50;;;24.10;98.40;;;;;;5072977;28;20048;-76
2023/06/16 11:33:19;;;;;;;7.65;2.53;;;24.20;98.40;;;;;;5065737;28;20059;-76
2023/06/16 11:35:45;;;;;;;7.95;2.50;;;24.40;98.20;;;;;;5068456;28;20255;-76
2023/06/16 11:38:11;;;;;;;6.95;2.30;;;24.10;98.20;;;;;;5067748;28;20032;-77
2023/06/16 11:40:36;;;;;;;7.53;2.50;;;24.00;98.20;;;;;;5072456;28;20029;-76
2023/06/16 11:43:04;;;;;;;9.43;2.47;;;24.00;97.70;;;;;;5074233;28;20137;-77
2023/06/16 11:45:37;;;;;;;7.18;2.45;;;24.00;98.00;;;;;;5073882;28;20041;-77
2023/06/16 11:48:05;;;;;;;7.47;2.60;;;24.10;98.20;;;;;;5074317;28;20054;-77
2023/06/16 11:50:32;;;;;;;7.68;2.58;;;24.10;98.10;;;;;;5073142;28;20146;-77
2023/06/16 11:52:57;;;;;;;9.98;2.42;;;24.10;98.30;;;;;;5075444;28;20143;-77
2023/06/16 11:55:24;;;;;;;6.70;2.60;;;24.30;98.50;;;;;;5073375;28;20082;-77
2023/06/16 11:57:50;;;;;;;8.38;2.70;;;24.40;98.10;;;;;;5071812;28;20052;-76
2023/06/16 12:00:18;;;;;;;7.90;2.85;;;24.20;97.80;;;;;;5069297;28;20056;-77
2023/06/16 12:02:46;;;;;;;7.10;2.53;;;24.40;97.70;;;;;;5073356;28;20078;-77
2023/06/16 12:05:23;;;;;;;6.97;2.45;;;24.50;97.50;;;;;;5073125;28;20044;-77
2023/06/16 12:07:49;;;;;;;7.70;2.38;;;24.50;97.20;;;;;;5075079;28;20116;-77
2023/06/16 12:10:16;;;;;;;6.85;2.38;;;24.40;97.20;;;;;;5056560;28;20273;-76
2023/06/16 12:12:46;;;;;;;6.60;2.42;;;24.00;96.50;;;;;;5073028;28;20189;-76
2023/06/16 12:15:20;;;;;;;7.65;2.30;;;24.10;96.60;;;;;;5071346;28;20036;-76
2023/06/16 12:17:49;;;;;;;6.72;2.17;;;;;;;;;;5073369;28;20040;-77
2023/06/16 12:20:17;;;;;;;6.03;2.28;;;24.10;96.30;;;;;;5054843;28;20044;-77
2023/06/16 12:22:44;;;;;;;7.53;2.33;;;24.20;96.10;;;;;;5073692;28;20224;-77
2023/06/16 12:25:13;;;;;;;7.32;2.50;;;24.40;96.10;;;;;;5051894;28;20040;-77
2023/06/16 12:27:43;;;;;;;6.82;2.25;;;24.30;95.30;;;;;;5074848;28;20086;-77
2023/06/16 12:30:10;;;;;;;6.95;2.28;;;24.30;95.50;;;;;;5069140;28;20048;-77
2023/06/16 12:32:36;;;;;;;7.63;2.70;;;24.30;95.60;;;;;;5055161;28;20048;-77
2023/06/16 12:35:02;;;;;;;7.65;2.35;;;24.40;95.70;;;;;;5071930;28;20036;-77
2023/06/16 12:37:29;;;;;;;7.55;2.55;;;24.50;95.00;;;;;;5076333;28;20037;-77
2023/06/16 12:40:06;;;;;;;7.63;2.55;;;24.40;95.00;;;;;;5055345;28;20172;-77
2023/06/16 12:42:34;;;;;;;10.45;2.83;;;24.40;94.30;;;;;;5071027;28;20040;-77